createdAt,value
2016-11-21T00:04:43.043Z,22.6
2016-11-21T00:09:47.140Z,22.6
2016-11-21T00:14:51.901Z,22.6
2016-11-21T00:19:55.991Z,22.6
2016-11-21T00:25:00.096Z,22.6
2016-11-21T00:30:04.523Z,22.6
2016-11-21T00:35:08.609Z,22.6
2016-11-21T00:40:13.038Z,22.6
2016-11-21T00:45:17.134Z,22.6
2016-11-21T00:50:21.562Z,22.6
2016-11-21T00:55:25.984Z,22.6
2016-11-21T01:00:31.082Z,22.6
2016-11-21T01:05:35.515Z,22.6
2016-11-21T01:10:39.943Z,22.6
2016-11-21T01:15:44.365Z,22.6
2016-11-21T01:20:48.792Z,22.6
2016-11-21T01:25:53.222Z,22.6
2016-11-21T01:30:57.314Z,22.6
2016-11-21T01:36:01.402Z,22.6
2016-11-21T01:41:05.492Z,22.6
2016-11-21T01:46:09.919Z,22.6
2016-11-21T01:51:14.009Z,22.6
2016-11-21T01:56:18.433Z,22.6
2016-11-21T02:01:23.193Z,22.6
2016-11-21T02:06:27.282Z,22.6
2016-11-21T02:11:31.370Z,22.6
2016-11-21T02:16:35.448Z,22.6
2016-11-21T02:21:39.536Z,22.6
2016-11-21T02:26:44.297Z,22.5
2016-11-21T02:31:49.379Z,22.5
2016-11-21T02:36:53.472Z,22.5
2016-11-21T02:41:57.553Z,22.6
2016-11-21T02:47:01.638Z,22.5
2016-11-21T02:52:06.060Z,22.5
2016-11-21T02:57:10.482Z,22.5
2016-11-21T03:02:14.576Z,22.5
2016-11-21T03:07:18.667Z,22.5
2016-11-21T03:12:22.757Z,22.5
2016-11-21T03:17:26.843Z,22.5
2016-11-21T03:22:31.273Z,22.5
2016-11-21T03:27:35.697Z,22.5
2016-11-21T03:32:40.121Z,22.5
2016-11-21T03:37:44.540Z,22.5
2016-11-21T03:42:48.962Z,22.5
2016-11-21T03:47:53.051Z,22.5
2016-11-21T03:52:57.475Z,22.4
2016-11-21T03:58:01.573Z,22.4
2016-11-21T04:03:05.671Z,22.5
2016-11-21T04:08:10.100Z,22.4
2016-11-21T04:13:14.517Z,22.4
2016-11-21T04:18:18.598Z,22.4
2016-11-21T04:23:23.023Z,22.4
2016-11-21T04:28:27.112Z,22.5
2016-11-21T04:33:31.532Z,22.5
2016-11-21T04:38:35.943Z,22.5
2016-11-21T04:43:40.363Z,22.5
2016-11-21T04:48:44.450Z,22.5
2016-11-21T04:53:48.534Z,22.6
2016-11-21T04:58:52.621Z,22.6
2016-11-21T05:03:57.379Z,22.6
2016-11-21T05:09:01.477Z,22.7
2016-11-21T05:14:05.573Z,22.7
2016-11-21T05:19:09.660Z,22.7
2016-11-21T05:24:13.762Z,22.7
2016-11-21T05:29:17.869Z,22.7
2016-11-21T05:34:21.991Z,22.7
2016-11-21T05:39:26.422Z,22.7
2016-11-21T05:44:30.847Z,22.7
2016-11-21T05:49:34.938Z,22.7
2016-11-21T05:54:39.147Z,22.7
2016-11-21T05:59:43.568Z,22.8
2016-11-21T06:04:47.657Z,22.8
2016-11-21T06:09:52.081Z,22.8
2016-11-21T06:14:56.325Z,22.9
2016-11-21T06:20:00.403Z,22.9
2016-11-21T06:25:04.492Z,23
2016-11-21T06:30:08.920Z,23
2016-11-21T06:35:13.347Z,23.1
2016-11-21T06:40:17.440Z,23.1
2016-11-21T06:45:22.199Z,23.1
2016-11-21T06:50:26.638Z,23.1
2016-11-21T06:55:31.072Z,23.2
2016-11-21T07:00:35.497Z,23.2
2016-11-21T07:05:39.927Z,23.2
2016-11-21T07:10:44.020Z,23.2
2016-11-21T07:15:48.109Z,23.1
2016-11-21T07:20:52.557Z,23.2
2016-11-21T07:25:56.993Z,23.2
2016-11-21T07:31:01.081Z,23.2
2016-11-21T07:36:05.170Z,23.1
2016-11-21T07:41:09.268Z,23
2016-11-21T07:46:13.369Z,22.8
2016-11-21T07:51:17.802Z,22.8
2016-11-21T07:56:22.225Z,22.7
2016-11-21T08:01:26.310Z,22.6
2016-11-21T08:06:30.399Z,22.6
2016-11-21T08:11:34.509Z,22.5
2016-11-21T08:16:38.926Z,22.4
2016-11-21T08:21:43.026Z,22.4
2016-11-21T08:26:47.449Z,22.4
2016-11-21T08:31:51.532Z,22.4
2016-11-21T08:36:55.619Z,22.5
2016-11-21T08:41:59.709Z,22.5
2016-11-21T08:47:03.798Z,22.6
2016-11-21T08:52:07.885Z,22.6
2016-11-21T08:57:11.975Z,22.7
2016-11-21T09:02:16.398Z,22.7
2016-11-21T09:07:20.822Z,22.8
2016-11-21T09:12:24.919Z,22.8
2016-11-21T09:17:30.013Z,22.8
2016-11-21T09:22:34.106Z,22.9
2016-11-21T09:27:38.199Z,23
2016-11-21T09:32:42.299Z,23
2016-11-21T09:37:46.732Z,23
2016-11-21T09:42:50.822Z,23
2016-11-21T09:47:54.921Z,23.1
2016-11-21T09:52:59.691Z,23.1
2016-11-21T09:58:03.786Z,23.2
2016-11-21T10:03:07.896Z,23.2
2016-11-21T10:08:12.012Z,23.1
2016-11-21T10:13:16.430Z,23.1
2016-11-21T10:18:20.528Z,23.1
2016-11-21T10:23:24.951Z,23.1
2016-11-21T10:28:29.035Z,23.1
2016-11-21T10:33:33.124Z,23.1
2016-11-21T10:38:38.576Z,23.1
2016-11-21T10:43:43.005Z,23.1
2016-11-21T10:48:47.430Z,23.1
2016-11-21T10:53:51.855Z,23.1
2016-11-21T10:58:56.287Z,23.1
2016-11-21T11:04:00.711Z,23.1
2016-11-21T11:09:04.796Z,23.1
2016-11-21T11:14:09.217Z,23.1
2016-11-21T11:19:13.647Z,23.1
2016-11-21T11:24:18.071Z,23.1
2016-11-21T11:29:22.168Z,23.1
2016-11-21T11:34:26.280Z,23.1
2016-11-21T11:39:30.712Z,23.1
2016-11-21T11:44:34.802Z,23.1
2016-11-21T11:49:39.232Z,23.1
2016-11-21T11:54:43.319Z,23.1
2016-11-21T11:59:47.412Z,23.1
2016-11-21T12:04:51.837Z,23.1
2016-11-21T12:09:55.935Z,23.1
2016-11-21T12:15:00.354Z,23.1
2016-11-21T12:20:05.111Z,23.1
2016-11-21T12:25:09.872Z,23.1
2016-11-21T12:30:13.966Z,23.1
2016-11-21T12:35:18.058Z,23.1
2016-11-21T12:40:22.477Z,23.1
2016-11-21T12:45:26.900Z,23.1
2016-11-21T12:50:30.992Z,23.1
2016-11-21T12:55:35.076Z,23.1
2016-11-21T13:00:39.164Z,23.2
2016-11-21T13:05:43.459Z,23.2
2016-11-21T13:10:47.887Z,23.2
2016-11-21T13:15:52.312Z,23.2
2016-11-21T13:20:56.399Z,23.2
2016-11-21T13:26:00.488Z,23.2
2016-11-21T13:31:04.596Z,23.2
2016-11-21T13:36:09.025Z,23.2
2016-11-21T13:41:13.582Z,23.3
2016-11-21T13:46:17.706Z,23.3
2016-11-21T13:51:22.208Z,23.3
2016-11-21T13:56:26.635Z,23.3
2016-11-21T14:01:31.062Z,23.3
2016-11-21T14:06:35.825Z,23.4
2016-11-21T14:12:10.102Z,23.4
2016-11-21T14:17:14.885Z,23.4
2016-11-21T14:22:18.988Z,23.4
2016-11-21T14:27:23.456Z,23.4
2016-11-21T14:32:27.577Z,23.3
2016-11-21T14:37:32.013Z,23.3
2016-11-21T14:42:36.159Z,23.3
2016-11-21T14:47:40.313Z,23.3
2016-11-21T14:52:44.417Z,23.3
2016-11-21T14:57:48.504Z,23.3
2016-11-21T15:02:52.602Z,23.3
2016-11-21T15:07:56.840Z,23.3
2016-11-21T15:13:01.305Z,23.3
2016-11-21T15:18:05.414Z,23.4
2016-11-21T15:23:09.861Z,23.4
2016-11-21T15:28:14.322Z,23.4
2016-11-21T15:33:18.412Z,23.4
2016-11-21T15:38:22.838Z,23.4
2016-11-21T15:43:27.486Z,23.4
2016-11-21T15:48:31.553Z,23.3
2016-11-21T15:53:35.981Z,23.3
2016-11-21T15:58:40.448Z,23.3
2016-11-21T16:03:45.282Z,23.3
2016-11-21T16:08:49.728Z,23.3
2016-11-21T16:13:54.172Z,23.3
2016-11-21T16:18:58.979Z,23.3
2016-11-21T16:24:03.109Z,23.2
2016-11-21T16:29:07.204Z,23.2
2016-11-21T16:34:11.673Z,23.2
2016-11-21T16:39:16.145Z,23.2
2016-11-21T16:44:20.462Z,23.2
2016-11-21T16:49:24.573Z,23.2
2016-11-21T16:54:29.426Z,23.2
2016-11-21T16:59:33.519Z,23.2
2016-11-21T17:04:37.617Z,23.2
2016-11-21T17:09:41.717Z,23.2
2016-11-21T17:14:45.837Z,23.2
2016-11-21T17:19:49.954Z,23.3
2016-11-21T17:24:54.385Z,23.3
2016-11-21T17:29:59.192Z,23.3
2016-11-21T17:35:03.474Z,23.3
2016-11-21T17:40:07.904Z,23.3
2016-11-21T17:45:12.520Z,23.2
2016-11-21T17:50:16.971Z,23.2
2016-11-21T17:55:21.464Z,23.2
2016-11-21T18:00:25.915Z,23.2
2016-11-21T18:05:30.344Z,23.2
2016-11-21T18:10:34.478Z,23.2
2016-11-21T18:15:38.643Z,23.2
2016-11-21T18:20:42.980Z,23.2
2016-11-21T18:25:47.750Z,23.2
2016-11-21T18:30:51.845Z,23.2
2016-11-21T18:35:55.945Z,23.2
2016-11-21T18:41:00.062Z,23.2
2016-11-21T18:46:04.504Z,23.2
2016-11-21T18:51:09.966Z,23.3
2016-11-21T18:56:14.394Z,23.3
2016-11-21T19:01:18.501Z,23.3
2016-11-21T19:06:22.982Z,23.3
2016-11-21T19:11:27.168Z,23.3
2016-11-21T19:16:31.616Z,23.3
2016-11-21T19:21:35.735Z,23.3
2016-11-21T19:26:39.838Z,23.3
2016-11-21T19:31:43.931Z,23.3
2016-11-21T19:36:48.742Z,23.2
2016-11-21T19:41:53.488Z,23.2
2016-11-21T19:46:57.601Z,23.2
2016-11-21T19:52:01.731Z,23.3
2016-11-21T19:57:06.053Z,23.3
2016-11-21T20:02:10.241Z,23.2
2016-11-21T20:07:14.347Z,23.3
2016-11-21T20:12:18.817Z,23.3
2016-11-21T20:17:23.591Z,23.3
2016-11-21T20:22:28.021Z,23.3
2016-11-21T20:27:32.471Z,23.3
2016-11-21T20:32:36.902Z,23.3
2016-11-21T20:37:41.348Z,23.4
2016-11-21T20:42:45.443Z,23.4
2016-11-21T20:47:49.552Z,23.4
2016-11-21T20:52:53.658Z,23.4
2016-11-21T20:57:58.086Z,23.4
2016-11-21T21:03:02.525Z,23.4
2016-11-21T21:08:06.627Z,23.4
2016-11-21T21:13:10.735Z,23.4
2016-11-21T21:18:15.186Z,23.4
2016-11-21T21:23:19.288Z,23.4
2016-11-21T21:28:23.741Z,23.4
2016-11-21T21:33:27.847Z,23.4
2016-11-21T21:38:32.981Z,23.4
2016-11-21T21:43:37.119Z,23.4
2016-11-21T21:48:41.255Z,23.4
2016-11-21T21:53:45.355Z,23.4
2016-11-21T21:58:49.833Z,23.4
2016-11-21T22:03:54.281Z,23.4
2016-11-21T22:08:59.048Z,23.3
2016-11-21T22:14:03.149Z,23.3
2016-11-21T22:19:07.591Z,23.3
2016-11-21T22:24:12.363Z,23.3
2016-11-21T22:29:16.465Z,23.3
2016-11-21T22:34:20.892Z,23.3
2016-11-21T22:39:25.330Z,23.3
2016-11-21T22:44:30.102Z,23.3
2016-11-21T22:49:34.861Z,23.3
2016-11-21T22:54:39.307Z,23.2
2016-11-21T22:59:43.400Z,23.2
2016-11-21T23:04:47.495Z,23.2
2016-11-21T23:09:51.590Z,23.2
2016-11-21T23:14:55.679Z,23.2
2016-11-21T23:20:00.121Z,23.2
2016-11-21T23:25:04.214Z,23.2
2016-11-21T23:30:08.987Z,23.1
2016-11-21T23:35:13.412Z,23.1
2016-11-21T23:40:17.510Z,23.1
2016-11-21T23:45:21.947Z,23.1
2016-11-21T23:50:26.039Z,23.1
2016-11-21T23:55:30.474Z,23.1
